createdAt,value
2022-09-23T00:01:28.204Z,12.92
2022-09-23T00:03:56.377Z,12.76
2022-09-23T00:06:24.386Z,12.80
2022-09-23T00:08:52.284Z,12.81
2022-09-23T00:11:26.691Z,12.80
2022-09-23T00:13:56.887Z,12.78
2022-09-23T00:16:29.118Z,12.54
2022-09-23T00:19:01.467Z,12.46
2022-09-23T00:21:29.472Z,12.49
2022-09-23T00:23:56.275Z,12.53
2022-09-23T00:26:25.141Z,12.59
2022-09-23T00:28:56.772Z,12.46
2022-09-23T00:31:27.522Z,12.23
2022-09-23T00:33:56.872Z,12.26
2022-09-23T00:36:25.226Z,12.33
2022-09-23T00:38:53.466Z,12.24
2022-09-23T00:41:21.530Z,12.23
2022-09-23T00:43:56.741Z,12.16
2022-09-23T00:46:36.431Z,12.11
2022-09-23T00:49:15.630Z,12.12
2022-09-23T00:52:02.771Z,12.21
2022-09-23T00:54:32.483Z,12.28
2022-09-23T00:57:01.320Z,12.20
2022-09-23T00:59:29.163Z,12.48
2022-09-23T01:02:01.259Z,12.37
2022-09-23T01:04:30.043Z,12.18
2022-09-23T01:06:57.004Z,12.14
2022-09-23T01:09:25.206Z,12.23
2022-09-23T01:12:12.833Z,12.04
2022-09-23T01:15:04.660Z,11.98
2022-09-23T01:17:53.316Z,11.86
2022-09-23T01:20:43.116Z,11.92
2022-09-23T01:24:13.224Z,11.78
2022-09-23T01:26:49.488Z,11.99
2022-09-23T01:29:59.631Z,11.95
2022-09-23T01:32:47.792Z,12.02
2022-09-23T01:35:23.856Z,12.07
2022-09-23T01:37:58.038Z,12.02
2022-09-23T01:40:45.239Z,12.05
2022-09-23T01:43:36.404Z,12.09
2022-09-23T01:46:19.879Z,11.99
2022-09-23T01:49:20.572Z,11.98
2022-09-23T01:51:57.239Z,12.10
2022-09-23T01:54:45.574Z,12.19
2022-09-23T01:57:27.837Z,12.21
2022-09-23T02:00:05.819Z,11.92
2022-09-23T02:02:49.857Z,11.99
2022-09-23T02:05:24.577Z,12.12
2022-09-23T02:08:14.361Z,11.97
2022-09-23T02:10:58.907Z,11.91
2022-09-23T02:13:25.835Z,12.09
2022-09-23T02:15:58.544Z,12.25
2022-09-23T02:18:34.504Z,12.18
2022-09-23T02:21:06.926Z,12.21
2022-09-23T02:23:47.218Z,12.36
2022-09-23T02:26:41.317Z,12.34
2022-09-23T02:29:24.888Z,12.41
2022-09-23T02:32:20.538Z,12.27
2022-09-23T02:35:33.303Z,12.34
2022-09-23T02:38:44.667Z,12.56
2022-09-23T02:42:05.972Z,12.52
2022-09-23T02:44:36.336Z,12.68
2022-09-23T02:47:03.576Z,12.71
2022-09-23T02:49:32.897Z,12.60
2022-09-23T02:52:07.642Z,12.72
2022-09-23T02:54:35.503Z,12.60
2022-09-23T02:57:10.289Z,12.58
2022-09-23T02:59:38.245Z,12.57
2022-09-23T03:02:14.403Z,12.56
2022-09-23T03:05:06.733Z,12.63
2022-09-23T03:07:55.306Z,12.61
2022-09-23T03:10:42.936Z,12.63
2022-09-23T03:13:42.830Z,12.59
2022-09-23T03:16:21.809Z,12.73
2022-09-23T03:19:03.619Z,12.70
2022-09-23T03:22:00.843Z,12.65
2022-09-23T03:24:34.515Z,12.83
2022-09-23T03:27:13.571Z,12.85
2022-09-23T03:29:47.232Z,12.80
2022-09-23T03:32:22.147Z,12.48
2022-09-23T03:34:52.461Z,12.62
2022-09-23T03:37:31.436Z,12.69
2022-09-23T03:40:20.960Z,12.83
2022-09-23T03:42:49.125Z,12.84
2022-09-23T03:45:26.642Z,12.92
2022-09-23T03:47:56.244Z,12.95
2022-09-23T03:50:25.800Z,13.22
2022-09-23T03:52:53.300Z,13.23
2022-09-23T03:55:21.267Z,12.98
2022-09-23T03:57:51.059Z,12.76
2022-09-23T04:00:20.339Z,12.84
2022-09-23T04:02:47.218Z,12.90
2022-09-23T04:05:14.970Z,12.88
2022-09-23T04:07:42.652Z,12.81
2022-09-23T04:10:10.388Z,12.68
2022-09-23T04:12:40.194Z,12.82
2022-09-23T04:15:07.854Z,12.63
2022-09-23T04:17:34.844Z,12.66
2022-09-23T04:20:02.147Z,12.69
2022-09-23T04:22:29.037Z,12.70
2022-09-23T04:24:56.323Z,12.78
2022-09-23T04:27:23.359Z,12.70
2022-09-23T04:29:50.430Z,12.79
2022-09-23T04:32:20.805Z,12.79
2022-09-23T04:34:47.779Z,12.85
2022-09-23T04:37:17.233Z,12.71
2022-09-23T04:39:44.299Z,12.69
2022-09-23T04:42:11.188Z,12.72
2022-09-23T04:44:38.945Z,12.53
2022-09-23T04:47:08.496Z,12.43
2022-09-23T04:49:38.410Z,12.55
2022-09-23T04:52:07.803Z,12.57
2022-09-23T04:54:34.930Z,12.48
2022-09-23T04:57:04.305Z,12.47
2022-09-23T04:59:35.913Z,12.53
2022-09-23T05:02:02.853Z,12.66
2022-09-23T05:04:36.296Z,12.57
2022-09-23T05:07:03.927Z,12.65
2022-09-23T05:09:33.628Z,12.57
2022-09-23T05:12:02.743Z,12.51
2022-09-23T05:14:29.871Z,12.37
2022-09-23T05:16:56.854Z,12.21
2022-09-23T05:19:27.022Z,12.25
2022-09-23T05:21:56.181Z,12.22
2022-09-23T05:24:25.207Z,12.43
2022-09-23T05:26:52.515Z,12.58
2022-09-23T05:29:22.435Z,12.67
2022-09-23T05:31:52.453Z,12.62
2022-09-23T05:34:23.294Z,12.65
2022-09-23T05:36:50.608Z,12.91
2022-09-23T05:39:17.480Z,13.11
2022-09-23T05:41:44.541Z,13.11
2022-09-23T05:44:11.604Z,13.15
2022-09-23T05:46:40.797Z,13.16
2022-09-23T05:49:10.595Z,13.01
2022-09-23T05:51:37.809Z,13.16
2022-09-23T05:54:06.142Z,13.32
2022-09-23T05:56:37.234Z,13.37
2022-09-23T05:59:07.087Z,13.35
2022-09-23T06:01:36.778Z,13.38
2022-09-23T06:04:07.583Z,13.49
2022-09-23T06:06:42.754Z,13.37
2022-09-23T06:09:15.109Z,13.42
2022-09-23T06:11:46.754Z,13.56
2022-09-23T06:14:17.307Z,13.92
2022-09-23T06:16:46.263Z,14.45
2022-09-23T06:19:13.312Z,14.60
2022-09-23T06:21:41.019Z,14.59
2022-09-23T06:24:16.959Z,14.40
2022-09-23T06:26:45.881Z,14.20
2022-09-23T06:29:12.793Z,14.51
2022-09-23T06:31:43.317Z,14.59
2022-09-23T06:34:14.582Z,14.96
2022-09-23T06:36:45.311Z,15.52
2022-09-23T06:39:14.996Z,16.15
2022-09-23T06:41:42.202Z,16.47
2022-09-23T06:44:09.395Z,16.85
2022-09-23T06:46:37.255Z,16.56
2022-09-23T06:49:04.223Z,16.22
2022-09-23T06:51:31.476Z,16.04
2022-09-23T06:54:00.808Z,15.86
2022-09-23T06:56:32.533Z,15.77
2022-09-23T06:59:05.655Z,15.14
2022-09-23T07:01:35.751Z,15.23
2022-09-23T07:04:05.358Z,15.04
2022-09-23T07:06:32.590Z,14.98
2022-09-23T07:09:01.162Z,15.14
2022-09-23T07:11:32.667Z,14.98
2022-09-23T07:13:59.741Z,15.45
2022-09-23T07:16:29.042Z,15.88
2022-09-23T07:19:01.332Z,15.40
2022-09-23T07:21:28.437Z,15.66
2022-09-23T07:23:58.007Z,16.19
2022-09-23T07:26:25.828Z,16.78
2022-09-23T07:28:57.062Z,17.04
2022-09-23T07:31:38.226Z,16.88
2022-09-23T07:34:08.052Z,17.20
2022-09-23T07:36:40.811Z,17.21
2022-09-23T07:39:14.718Z,17.85
2022-09-23T07:41:44.601Z,19.48
2022-09-23T07:44:21.928Z,20.26
2022-09-23T07:46:52.858Z,20.55
2022-09-23T07:49:20.579Z,21.68
2022-09-23T07:51:51.203Z,22.35
2022-09-23T07:54:21.225Z,22.34
2022-09-23T07:56:51.027Z,22.18
2022-09-23T07:59:18.966Z,22.32
2022-09-23T08:01:57.340Z,23.17
2022-09-23T08:04:31.033Z,22.70
2022-09-23T08:07:04.724Z,22.81
2022-09-23T08:09:41.488Z,24.78
2022-09-23T08:12:16.385Z,26.38
2022-09-23T08:14:45.709Z,26.64
2022-09-23T08:17:13.882Z,26.77
2022-09-23T08:19:41.036Z,27.23
2022-09-23T08:22:17.736Z,25.99
2022-09-23T08:24:46.806Z,26.87
2022-09-23T08:27:16.704Z,25.84
2022-09-23T08:29:43.787Z,24.79
2022-09-23T08:32:10.889Z,25.52
2022-09-23T08:34:37.976Z,26.88
2022-09-23T08:37:08.993Z,25.50
2022-09-23T08:39:36.043Z,25.46
2022-09-23T08:42:18.977Z,25.02
2022-09-23T08:44:55.483Z,25.53
2022-09-23T08:47:22.356Z,26.26
2022-09-23T08:50:00.508Z,26.97
2022-09-23T08:53:10.880Z,27.26
2022-09-23T08:55:47.750Z,28.31
2022-09-23T08:58:26.990Z,29.03
2022-09-23T09:01:24.880Z,27.95
2022-09-23T09:04:01.227Z,28.14
2022-09-23T09:06:52.852Z,29.04
2022-09-23T09:09:30.873Z,28.79
2022-09-23T09:12:27.254Z,29.20
2022-09-23T09:15:14.607Z,30.06
2022-09-23T09:18:08.063Z,31.00
2022-09-23T09:20:51.858Z,32.64
2022-09-23T09:23:22.948Z,33.33
2022-09-23T09:25:57.558Z,31.34
2022-09-23T09:28:39.243Z,32.05
2022-09-23T09:31:24.790Z,32.07
2022-09-23T09:34:16.922Z,32.33
2022-09-23T09:36:50.333Z,32.37
2022-09-23T09:39:17.923Z,31.07
2022-09-23T09:41:52.178Z,33.50
2022-09-23T09:44:40.502Z,34.98
2022-09-23T09:47:51.187Z,34.68
2022-09-23T09:50:49.448Z,33.80
2022-09-23T09:53:24.079Z,32.47
2022-09-23T09:56:05.300Z,32.50
2022-09-23T09:58:51.967Z,31.63
2022-09-23T10:01:26.129Z,31.50
2022-09-23T10:03:59.163Z,31.97
2022-09-23T10:06:39.921Z,33.48
2022-09-23T10:09:19.555Z,32.47
2022-09-23T10:12:15.980Z,31.19
2022-09-23T10:14:44.427Z,33.01
2022-09-23T10:17:39.167Z,33.13
2022-09-23T10:20:14.680Z,33.80
2022-09-23T10:22:46.479Z,32.78
2022-09-23T10:25:21.651Z,33.95
2022-09-23T10:27:48.567Z,34.98
2022-09-23T10:30:15.690Z,36.33
2022-09-23T10:32:48.564Z,36.98
2022-09-23T10:35:21.092Z,38.11
2022-09-23T10:37:59.949Z,38.76
2022-09-23T10:40:48.525Z,38.42
2022-09-23T10:44:09.826Z,38.47
2022-09-23T10:46:49.195Z,37.33
2022-09-23T10:49:48.986Z,37.07
2022-09-23T10:52:37.009Z,38.01
2022-09-23T10:55:25.782Z,38.59
2022-09-23T10:58:43.890Z,37.70
2022-09-23T11:01:49.281Z,37.42
2022-09-23T11:04:52.946Z,36.92
2022-09-23T11:07:49.379Z,34.55
2022-09-23T11:10:57.640Z,35.83
2022-09-23T11:13:30.355Z,34.94
2022-09-23T11:16:21.159Z,35.75
2022-09-23T11:18:55.644Z,36.37
2022-09-23T11:22:16.027Z,35.44
2022-09-23T11:25:24.078Z,35.20
2022-09-23T11:28:03.722Z,32.96
2022-09-23T11:31:06.602Z,30.87
2022-09-23T11:34:16.355Z,30.09
2022-09-23T11:36:50.900Z,30.41
2022-09-23T11:39:36.280Z,30.26
2022-09-23T11:42:10.770Z,30.60
2022-09-23T11:44:44.852Z,29.57
2022-09-23T11:47:21.155Z,29.92
2022-09-23T11:50:27.222Z,27.56
2022-09-23T11:53:22.820Z,27.10
2022-09-23T11:55:58.815Z,28.18
2022-09-23T11:58:37.612Z,28.75
2022-09-23T12:01:16.867Z,29.28
2022-09-23T12:04:14.349Z,28.93
2022-09-23T12:07:13.685Z,28.74
2022-09-23T12:10:06.484Z,27.06
2022-09-23T12:12:54.247Z,25.76
2022-09-23T12:15:33.412Z,25.76
2022-09-23T12:18:23.563Z,26.00
2022-09-23T12:21:38.815Z,25.75
2022-09-23T12:24:33.101Z,26.36
2022-09-23T12:27:11.097Z,26.18
2022-09-23T12:29:42.237Z,26.73
2022-09-23T12:32:18.609Z,26.59
2022-09-23T12:34:52.488Z,26.65
2022-09-23T12:37:35.611Z,26.79
2022-09-23T12:40:23.084Z,26.96
2022-09-23T12:42:52.565Z,25.81
2022-09-23T12:45:40.582Z,25.55
2022-09-23T12:48:25.709Z,25.41
2022-09-23T12:51:13.398Z,25.27
2022-09-23T12:53:50.860Z,25.62
2022-09-23T12:56:28.955Z,25.05
2022-09-23T12:59:21.657Z,25.68
2022-09-23T13:01:48.900Z,25.71
2022-09-23T13:05:10.116Z,25.24
2022-09-23T13:07:48.115Z,25.19
2022-09-23T13:10:32.829Z,24.92
2022-09-23T13:13:02.531Z,24.71
2022-09-23T13:15:36.133Z,24.99
2022-09-23T13:18:21.661Z,24.99
2022-09-23T13:20:51.126Z,24.73
2022-09-23T13:23:23.574Z,24.62
2022-09-23T13:25:56.733Z,24.55
2022-09-23T13:29:00.389Z,24.37
2022-09-23T13:31:27.640Z,24.12
2022-09-23T13:34:05.034Z,23.38
2022-09-23T13:36:48.046Z,22.65
2022-09-23T13:39:27.667Z,22.26
2022-09-23T13:42:01.706Z,22.75
2022-09-23T13:44:30.082Z,22.74
2022-09-23T13:47:03.505Z,22.46
2022-09-23T13:49:36.663Z,22.39
2022-09-23T13:52:04.598Z,22.46
2022-09-23T13:54:49.827Z,22.34
2022-09-23T13:57:34.520Z,22.21
2022-09-23T14:00:25.502Z,22.05
2022-09-23T14:02:57.022Z,21.90
2022-09-23T14:05:33.886Z,22.46
2022-09-23T14:08:03.503Z,22.76
2022-09-23T14:10:31.256Z,23.02
2022-09-23T14:12:59.510Z,22.52
2022-09-23T14:15:27.088Z,22.46
2022-09-23T14:18:03.691Z,22.46
2022-09-23T14:20:34.304Z,22.41
2022-09-23T14:23:15.460Z,22.06
2022-09-23T14:25:47.035Z,22.14
2022-09-23T14:28:23.715Z,21.79
2022-09-23T14:30:54.548Z,21.77
2022-09-23T14:33:33.529Z,22.07
2022-09-23T14:36:28.642Z,22.18
2022-09-23T14:39:09.048Z,22.22
2022-09-23T14:41:43.865Z,22.32
2022-09-23T14:44:28.355Z,22.43
2022-09-23T14:47:01.351Z,22.07
2022-09-23T14:49:28.507Z,22.05
2022-09-23T14:52:00.572Z,22.04
2022-09-23T14:54:37.654Z,22.01
2022-09-23T14:57:29.700Z,22.12
2022-09-23T15:00:29.443Z,21.82
2022-09-23T15:03:14.635Z,21.51
2022-09-23T15:05:50.750Z,21.64
2022-09-23T15:08:23.194Z,21.24
2022-09-23T15:10:50.711Z,21.22
2022-09-23T15:13:45.550Z,21.36
2022-09-23T15:16:15.603Z,21.60
2022-09-23T15:18:54.279Z,21.55
2022-09-23T15:21:25.025Z,21.51
2022-09-23T15:23:55.085Z,21.49
2022-09-23T15:26:26.513Z,21.43
2022-09-23T15:28:58.641Z,21.47
2022-09-23T15:31:27.982Z,21.43
2022-09-23T15:33:56.065Z,21.43
2022-09-23T15:36:30.705Z,21.31
2022-09-23T15:39:05.366Z,20.87
2022-09-23T15:41:36.029Z,21.12
2022-09-23T15:44:13.275Z,20.97
2022-09-23T15:46:52.162Z,21.37
2022-09-23T15:49:39.189Z,21.48
2022-09-23T15:52:10.267Z,21.38
2022-09-23T15:54:38.368Z,21.40
2022-09-23T15:57:05.597Z,21.43
2022-09-23T15:59:33.082Z,21.38
2022-09-23T16:02:05.901Z,21.40
2022-09-23T16:04:36.264Z,21.20
2022-09-23T16:07:05.259Z,21.01
2022-09-23T16:09:32.404Z,21.13
2022-09-23T16:12:03.502Z,21.23
2022-09-23T16:14:33.260Z,21.14
2022-09-23T16:17:05.222Z,21.25
2022-09-23T16:19:34.285Z,21.14
2022-09-23T16:22:01.785Z,20.92
2022-09-23T16:24:29.396Z,20.86
2022-09-23T16:27:00.241Z,20.77
2022-09-23T16:29:29.707Z,20.89
2022-09-23T16:32:01.049Z,20.68
2022-09-23T16:34:28.787Z,20.81
2022-09-23T16:36:56.242Z,20.71
2022-09-23T16:39:23.401Z,20.62
2022-09-23T16:41:50.594Z,20.60
2022-09-23T16:44:17.739Z,20.59
2022-09-23T16:46:44.812Z,20.59
2022-09-23T16:49:16.711Z,20.42
2022-09-23T16:51:43.956Z,20.49
2022-09-23T16:54:13.213Z,20.43
2022-09-23T16:56:44.265Z,20.27
2022-09-23T16:59:15.976Z,20.15
2022-09-23T17:02:04.511Z,20.15
2022-09-23T17:04:35.479Z,20.13
2022-09-23T17:07:05.216Z,19.98
2022-09-23T17:09:32.622Z,19.99
2022-09-23T17:12:16.542Z,20.07
2022-09-23T17:14:43.734Z,20.04
2022-09-23T17:17:13.357Z,20.08
2022-09-23T17:19:42.799Z,20.16
2022-09-23T17:22:10.015Z,20.05
2022-09-23T17:24:39.136Z,19.98
2022-09-23T17:27:06.125Z,19.99
2022-09-23T17:29:33.374Z,19.97
2022-09-23T17:32:00.368Z,19.95
2022-09-23T17:34:30.107Z,20.05
2022-09-23T17:36:57.432Z,20.04
2022-09-23T17:39:29.149Z,19.95
2022-09-23T17:41:57.482Z,20.03
2022-09-23T17:44:24.740Z,20.02
2022-09-23T17:46:52.607Z,19.87
2022-09-23T17:49:24.171Z,19.83
2022-09-23T17:51:53.750Z,19.74
2022-09-23T17:54:23.104Z,19.68
2022-09-23T17:56:50.118Z,19.58
2022-09-23T17:59:17.450Z,19.72
2022-09-23T18:01:46.825Z,19.64
2022-09-23T18:04:16.251Z,19.56
2022-09-23T18:06:43.756Z,19.66
2022-09-23T18:09:13.525Z,19.50
2022-09-23T18:11:53.406Z,19.47
2022-09-23T18:14:26.619Z,19.21
2022-09-23T18:17:01.302Z,19.19
2022-09-23T18:19:30.485Z,19.27
2022-09-23T18:21:59.687Z,19.19
2022-09-23T18:24:34.222Z,19.24
2022-09-23T18:27:02.535Z,19.28
2022-09-23T18:29:31.654Z,19.33
2022-09-23T18:32:03.471Z,19.33
2022-09-23T18:34:31.174Z,19.18
2022-09-23T18:37:00.750Z,19.17
2022-09-23T18:39:29.235Z,19.11
2022-09-23T18:42:10.417Z,18.88
2022-09-23T18:44:39.992Z,18.76
2022-09-23T18:47:07.394Z,18.97
2022-09-23T18:49:53.874Z,18.94
2022-09-23T18:52:26.640Z,18.71
2022-09-23T18:55:01.203Z,18.72
2022-09-23T18:57:30.871Z,18.79
2022-09-23T19:00:00.220Z,18.87
2022-09-23T19:02:27.749Z,18.87
2022-09-23T19:04:55.125Z,18.93
2022-09-23T19:07:25.598Z,18.82
2022-09-23T19:09:59.783Z,18.80
2022-09-23T19:12:26.787Z,18.76
2022-09-23T19:14:55.752Z,18.82
2022-09-23T19:17:23.445Z,18.79
2022-09-23T19:19:52.547Z,18.72
2022-09-23T19:22:19.848Z,18.62
2022-09-23T19:24:47.231Z,18.64
2022-09-23T19:27:16.742Z,18.55
2022-09-23T19:29:48.064Z,18.54
2022-09-23T19:32:15.979Z,18.53
2022-09-23T19:34:44.334Z,18.53
2022-09-23T19:37:17.211Z,18.51
2022-09-23T19:39:44.777Z,18.59
2022-09-23T19:42:11.642Z,18.64
2022-09-23T19:44:41.216Z,18.68
2022-09-23T19:47:15.369Z,18.61
2022-09-23T19:49:44.732Z,18.62
2022-09-23T19:52:12.849Z,18.30
2022-09-23T19:54:40.585Z,18.19
2022-09-23T19:57:10.469Z,18.15
2022-09-23T19:59:38.620Z,18.19
2022-09-23T20:02:06.610Z,18.07
2022-09-23T20:04:37.269Z,18.11
2022-09-23T20:07:08.030Z,18.14
2022-09-23T20:09:36.074Z,18.35
2022-09-23T20:12:06.174Z,18.26
2022-09-23T20:14:37.929Z,18.22
2022-09-23T20:17:04.884Z,18.24
2022-09-23T20:19:34.218Z,18.07
2022-09-23T20:22:19.599Z,17.67
2022-09-23T20:24:46.764Z,17.68
2022-09-23T20:27:17.039Z,17.66
2022-09-23T20:29:44.114Z,17.69
2022-09-23T20:32:13.309Z,17.56
2022-09-23T20:34:48.722Z,17.49
2022-09-23T20:37:23.462Z,17.54
2022-09-23T20:39:54.304Z,17.56
2022-09-23T20:42:24.361Z,17.61
2022-09-23T20:44:51.868Z,17.64
2022-09-23T20:47:19.660Z,17.63
2022-09-23T20:49:49.760Z,17.45
2022-09-23T20:52:21.564Z,17.21
2022-09-23T20:54:51.555Z,17.41
2022-09-23T20:57:20.246Z,17.58
2022-09-23T20:59:48.617Z,17.70
2022-09-23T21:02:16.206Z,17.75
2022-09-23T21:04:44.409Z,17.74
2022-09-23T21:07:11.387Z,17.86
2022-09-23T21:09:38.569Z,17.84
2022-09-23T21:12:08.112Z,17.62
2022-09-23T21:14:34.961Z,17.87
2022-09-23T21:17:04.796Z,18.04
2022-09-23T21:19:31.879Z,18.03
2022-09-23T21:22:07.593Z,17.95
2022-09-23T21:27:38.053Z,17.80
2022-09-23T21:30:08.003Z,17.86
2022-09-23T21:32:35.824Z,17.88
2022-09-23T21:35:02.777Z,17.75
2022-09-23T21:37:30.797Z,17.73
2022-09-23T21:40:16.164Z,17.61
2022-09-23T21:42:43.707Z,17.52
2022-09-23T21:45:21.085Z,17.51
2022-09-23T21:47:51.997Z,17.54
2022-09-23T21:50:21.655Z,17.57
2022-09-23T21:52:51.974Z,17.58
2022-09-23T21:55:41.164Z,17.55
2022-09-23T21:58:16.115Z,17.41
2022-09-23T22:00:44.931Z,17.47
2022-09-23T22:03:12.412Z,17.49
2022-09-23T22:05:44.031Z,17.48
2022-09-23T22:08:11.200Z,17.14
2022-09-23T22:10:38.454Z,17.15
2022-09-23T22:13:12.965Z,17.08
2022-09-23T22:15:40.232Z,17.05
2022-09-23T22:18:12.742Z,17.20
2022-09-23T22:20:44.339Z,17.31
2022-09-23T22:23:21.452Z,17.18
2022-09-23T22:26:02.804Z,17.35
2022-09-23T22:28:51.911Z,17.41
2022-09-23T22:31:37.588Z,17.00
2022-09-23T22:34:08.257Z,17.00
2022-09-23T22:36:40.637Z,16.98
2022-09-23T22:39:10.088Z,16.94
2022-09-23T22:41:41.430Z,17.15
2022-09-23T22:44:08.543Z,17.06
2022-09-23T22:46:37.610Z,16.91
2022-09-23T22:49:08.223Z,17.06
2022-09-23T22:51:35.314Z,17.02
2022-09-23T22:54:02.490Z,17.16
2022-09-23T22:56:29.640Z,17.31
2022-09-23T22:58:57.420Z,17.20
2022-09-23T23:01:24.462Z,17.01
2022-09-23T23:03:53.726Z,17.29
2022-09-23T23:06:22.721Z,17.35
2022-09-23T23:08:58.603Z,17.32
2022-09-23T23:11:27.660Z,17.47
2022-09-23T23:14:01.398Z,17.49
2022-09-23T23:16:35.078Z,17.31
2022-09-23T23:19:04.484Z,17.22
2022-09-23T23:21:31.586Z,17.28
2022-09-23T23:24:03.800Z,17.21
2022-09-23T23:26:33.001Z,17.18
2022-09-23T23:29:03.548Z,17.09
2022-09-23T23:31:32.250Z,17.11
2022-09-23T23:33:59.292Z,17.08
2022-09-23T23:36:26.470Z,17.01
2022-09-23T23:38:56.472Z,17.10
2022-09-23T23:41:30.008Z,17.02
2022-09-23T23:44:00.556Z,17.13
2022-09-23T23:46:30.451Z,16.88
2022-09-23T23:49:00.613Z,16.82
2022-09-23T23:51:28.696Z,17.05
2022-09-23T23:53:56.163Z,17.09
2022-09-23T23:56:27.711Z,17.01
2022-09-23T23:58:57.178Z,17.14
